createdAt,value
2023-05-06T00:00:14.674Z,6.18
2023-05-06T00:02:43.131Z,6.82
2023-05-06T00:05:11.863Z,7.18
2023-05-06T00:07:40.575Z,5.63
2023-05-06T00:10:10.678Z,5.57
2023-05-06T00:12:39.031Z,6.22
2023-05-06T00:15:10.342Z,6.75
2023-05-06T00:17:39.002Z,6.32
2023-05-06T00:20:10.972Z,6.78
2023-05-06T00:22:39.408Z,6.72
2023-05-06T00:25:08.955Z,6.13
2023-05-06T00:27:37.517Z,5.97
2023-05-06T00:30:09.351Z,5.90
2023-05-06T00:32:37.758Z,6.70
2023-05-06T00:35:08.070Z,5.40
2023-05-06T00:37:36.672Z,6.15
2023-05-06T00:40:06.154Z,5.13
2023-05-06T00:42:34.817Z,5.47
2023-05-06T00:45:04.168Z,6.10
2023-05-06T00:47:34.511Z,6.18
2023-05-06T00:50:03.471Z,5.95
2023-05-06T00:52:32.211Z,5.40
2023-05-06T00:55:00.557Z,5.55
2023-05-06T00:57:28.955Z,6.60
2023-05-06T00:59:57.265Z,5.72
2023-05-06T01:02:30.711Z,5.57
2023-05-06T01:05:12.455Z,5.95
2023-05-06T01:07:48.586Z,5.10
2023-05-06T01:10:25.605Z,5.25
2023-05-06T01:13:06.773Z,4.75
2023-05-06T01:15:39.401Z,4.15
2023-05-06T01:18:12.554Z,4.90
2023-05-06T01:20:44.282Z,11.60
2023-05-06T01:23:15.759Z,4.95
2023-05-06T01:25:44.408Z,5.43
2023-05-06T01:28:14.460Z,4.28
2023-05-06T01:31:00.494Z,3.88
2023-05-06T01:33:38.135Z,4.35
2023-05-06T01:36:17.174Z,3.40
2023-05-06T01:38:59.013Z,3.53
2023-05-06T01:41:28.425Z,3.05
2023-05-06T01:43:58.610Z,2.95
2023-05-06T01:46:29.622Z,2.72
2023-05-06T01:49:01.903Z,1.83
2023-05-06T01:51:30.202Z,3.17
2023-05-06T01:53:59.908Z,1.80
2023-05-06T01:56:30.254Z,1.63
2023-05-06T01:58:59.715Z,1.80
2023-05-06T02:01:28.376Z,1.10
2023-05-06T02:03:56.810Z,11.55
2023-05-06T02:06:25.298Z,2.95
2023-05-06T02:08:53.774Z,1.20
2023-05-06T02:11:23.530Z,0.95
2023-05-06T02:13:51.857Z,1.13
2023-05-06T02:16:21.858Z,1.10
2023-05-06T02:18:50.969Z,0.90
2023-05-06T02:21:19.339Z,0.80
2023-05-06T02:23:47.650Z,0.88
2023-05-06T02:26:16.537Z,1.10
2023-05-06T02:28:46.267Z,0.90
2023-05-06T02:31:15.893Z,0.90
2023-05-06T02:33:45.962Z,1.13
2023-05-06T02:36:14.349Z,1.10
2023-05-06T02:38:42.641Z,0.60
2023-05-06T02:41:11.628Z,0.88
2023-05-06T02:43:39.989Z,0.90
2023-05-06T02:46:09.624Z,0.98
2023-05-06T02:48:38.016Z,0.50
2023-05-06T02:51:06.852Z,0.85
2023-05-06T02:53:35.133Z,0.77
2023-05-06T02:56:03.354Z,1.00
2023-05-06T02:58:31.697Z,0.88
2023-05-06T03:00:59.990Z,0.40
2023-05-06T03:03:29.806Z,0.55
2023-05-06T03:05:58.137Z,0.60
2023-05-06T03:08:26.490Z,1.48
2023-05-06T03:10:54.723Z,1.45
2023-05-06T03:13:23.286Z,0.60
2023-05-06T03:15:54.904Z,0.60
2023-05-06T03:18:23.295Z,0.52
2023-05-06T03:20:53.009Z,0.63
2023-05-06T03:23:21.288Z,0.80
2023-05-06T03:25:49.551Z,0.57
2023-05-06T03:28:17.833Z,0.85
2023-05-06T03:30:46.225Z,0.60
2023-05-06T03:33:14.582Z,0.80
2023-05-06T03:35:42.938Z,0.77
2023-05-06T03:38:12.559Z,0.60
2023-05-06T03:40:41.028Z,0.70
2023-05-06T03:43:09.428Z,0.60
2023-05-06T03:45:37.993Z,0.60
2023-05-06T03:48:06.775Z,1.38
2023-05-06T03:50:35.182Z,0.60
2023-05-06T03:53:03.613Z,0.77
2023-05-06T03:55:33.399Z,1.05
2023-05-06T03:58:02.294Z,0.70
2023-05-06T04:00:30.915Z,0.75
2023-05-06T04:02:59.233Z,0.70
2023-05-06T04:05:27.677Z,0.73
2023-05-06T04:07:55.967Z,0.60
2023-05-06T04:10:24.222Z,0.85
2023-05-06T04:12:53.960Z,0.95
2023-05-06T04:15:23.028Z,0.70
2023-05-06T04:17:51.357Z,0.70
2023-05-06T04:20:20.376Z,0.70
2023-05-06T04:22:48.734Z,0.95
2023-05-06T04:25:18.381Z,1.10
2023-05-06T04:27:46.783Z,0.85
2023-05-06T04:30:17.126Z,0.70
2023-05-06T04:32:45.437Z,1.00
2023-05-06T04:35:13.985Z,0.80
2023-05-06T04:37:43.539Z,1.00
2023-05-06T04:40:14.138Z,0.77
2023-05-06T04:42:43.128Z,0.85
2023-05-06T04:45:12.636Z,1.02
2023-05-06T04:47:43.544Z,0.90
2023-05-06T04:50:13.062Z,1.00
2023-05-06T04:52:41.666Z,1.40
2023-05-06T04:55:11.272Z,1.35
2023-05-06T04:57:39.872Z,1.00
2023-05-06T05:00:11.526Z,0.85
2023-05-06T05:02:39.947Z,1.02
2023-05-06T05:05:10.842Z,0.98
2023-05-06T05:07:39.300Z,1.00
2023-05-06T05:10:10.504Z,1.10
2023-05-06T05:12:38.917Z,0.90
2023-05-06T05:15:08.987Z,0.93
2023-05-06T05:17:38.692Z,1.10
2023-05-06T05:20:10.431Z,1.00
2023-05-06T05:22:38.808Z,1.35
2023-05-06T05:25:08.986Z,1.00
2023-05-06T05:27:37.455Z,0.75
2023-05-06T05:30:08.078Z,0.98
2023-05-06T05:32:36.443Z,1.35
2023-05-06T05:35:05.434Z,0.88
2023-05-06T05:37:35.132Z,0.90
2023-05-06T05:40:04.665Z,1.00
2023-05-06T05:42:34.053Z,1.50
2023-05-06T05:45:02.469Z,1.52
2023-05-06T05:47:30.788Z,1.20
2023-05-06T05:49:59.228Z,1.92
2023-05-06T05:52:27.622Z,2.72
2023-05-06T05:54:57.374Z,2.15
2023-05-06T05:57:25.910Z,1.38
2023-05-06T05:59:54.289Z,1.45
2023-05-06T06:02:22.819Z,1.48
2023-05-06T06:04:51.365Z,1.13
2023-05-06T06:07:20.324Z,1.15
2023-05-06T06:09:48.948Z,1.17
2023-05-06T06:12:19.162Z,1.38
2023-05-06T06:14:48.521Z,1.27
2023-05-06T06:17:17.024Z,1.60
2023-05-06T06:19:47.576Z,1.17
2023-05-06T06:22:15.918Z,1.10
2023-05-06T06:24:45.240Z,1.45
2023-05-06T06:27:13.746Z,1.48
2023-05-06T06:29:43.490Z,1.40
2023-05-06T06:32:11.922Z,1.48
2023-05-06T06:34:40.403Z,1.98
2023-05-06T06:37:11.467Z,1.45
2023-05-06T06:39:39.912Z,1.85
2023-05-06T06:42:08.308Z,1.40
2023-05-06T06:44:37.334Z,1.45
2023-05-06T06:47:07.141Z,1.38
2023-05-06T06:49:35.470Z,1.48
2023-05-06T06:52:03.874Z,1.35
2023-05-06T06:54:32.234Z,1.60
2023-05-06T06:57:01.597Z,1.55
2023-05-06T06:59:30.003Z,1.40
2023-05-06T07:01:58.386Z,1.45
2023-05-06T07:04:28.241Z,1.42
2023-05-06T07:06:56.671Z,1.73
2023-05-06T07:09:25.010Z,2.15
2023-05-06T07:11:53.430Z,1.40
2023-05-06T07:14:22.324Z,1.30
2023-05-06T07:16:51.581Z,1.63
2023-05-06T07:19:20.216Z,1.50
2023-05-06T07:21:50.163Z,1.38
2023-05-06T07:24:18.475Z,1.10
2023-05-06T07:26:48.082Z,1.77
2023-05-06T07:29:16.582Z,1.02
2023-05-06T07:31:45.046Z,1.40
2023-05-06T07:34:13.403Z,1.23
2023-05-06T07:36:43.441Z,1.83
2023-05-06T07:39:15.903Z,1.30
2023-05-06T07:41:44.287Z,1.40
2023-05-06T07:44:12.736Z,1.80
2023-05-06T07:46:41.273Z,1.42
2023-05-06T07:49:09.781Z,1.30
2023-05-06T07:51:38.092Z,1.45
2023-05-06T07:54:06.726Z,1.45
2023-05-06T07:56:36.546Z,1.50
2023-05-06T07:59:05.290Z,1.33
2023-05-06T08:01:33.659Z,1.25
2023-05-06T08:04:02.099Z,1.70
2023-05-06T08:06:30.552Z,1.60
2023-05-06T08:08:58.854Z,1.40
2023-05-06T08:11:27.291Z,1.38
2023-05-06T08:13:57.040Z,1.50
2023-05-06T08:16:25.768Z,1.63
2023-05-06T08:18:54.162Z,1.30
2023-05-06T08:21:22.575Z,1.50
2023-05-06T08:23:50.920Z,1.38
2023-05-06T08:26:19.267Z,1.60
2023-05-06T08:28:47.582Z,1.52
2023-05-06T08:31:17.335Z,2.30
2023-05-06T08:33:46.106Z,1.40
2023-05-06T08:36:14.435Z,2.10
2023-05-06T08:38:48.964Z,1.27
2023-05-06T08:41:21.334Z,1.73
2023-05-06T08:43:51.099Z,1.55
2023-05-06T08:46:20.995Z,1.40
2023-05-06T08:48:49.346Z,1.60
2023-05-06T08:51:17.926Z,2.22
2023-05-06T08:53:51.537Z,2.40
2023-05-06T08:56:21.303Z,2.28
2023-05-06T08:58:52.317Z,1.65
2023-05-06T09:01:22.209Z,1.50
2023-05-06T09:03:51.219Z,1.58
2023-05-06T09:06:19.727Z,1.52
2023-05-06T09:08:48.072Z,1.65
2023-05-06T09:11:28.522Z,1.75
2023-05-06T09:14:13.558Z,1.70
2023-05-06T09:16:44.915Z,1.50
2023-05-06T09:19:14.792Z,1.65
2023-05-06T09:21:45.096Z,1.67
2023-05-06T09:24:15.336Z,1.17
2023-05-06T09:26:45.934Z,1.65
2023-05-06T09:29:14.712Z,1.50
2023-05-06T09:31:46.808Z,1.30
2023-05-06T09:34:17.496Z,1.80
2023-05-06T09:36:45.977Z,1.17
2023-05-06T09:39:14.406Z,4.50
2023-05-06T09:41:43.644Z,2.50
2023-05-06T09:44:13.307Z,2.70
2023-05-06T09:46:43.237Z,1.80
2023-05-06T09:49:12.066Z,2.42
2023-05-06T09:51:41.627Z,1.50
2023-05-06T09:54:11.063Z,1.40
2023-05-06T09:56:40.085Z,1.80
2023-05-06T09:59:09.392Z,1.60
2023-05-06T10:01:38.873Z,1.45
2023-05-06T10:04:10.922Z,1.50
2023-05-06T10:06:41.866Z,1.83
2023-05-06T10:09:11.402Z,1.80
2023-05-06T10:11:40.520Z,2.15
2023-05-06T10:14:09.798Z,1.88
2023-05-06T10:16:40.206Z,1.88
2023-05-06T10:19:10.506Z,1.75
2023-05-06T10:21:44.903Z,2.20
2023-05-06T10:24:14.609Z,2.13
2023-05-06T10:26:46.710Z,2.00
2023-05-06T10:29:15.369Z,2.10
2023-05-06T10:31:53.894Z,1.90
2023-05-06T10:34:26.347Z,2.13
2023-05-06T10:36:58.548Z,1.90
2023-05-06T10:39:27.828Z,1.95
2023-05-06T10:41:56.318Z,1.90
2023-05-06T10:44:58.352Z,1.83
2023-05-06T10:47:27.043Z,1.95
2023-05-06T10:50:23.280Z,1.60
2023-05-06T10:52:55.508Z,1.70
2023-05-06T10:55:29.362Z,1.42
2023-05-06T10:57:58.578Z,1.90
2023-05-06T11:00:27.225Z,1.80
2023-05-06T11:02:59.021Z,2.40
2023-05-06T11:05:29.064Z,2.17
2023-05-06T11:08:11.060Z,1.50
2023-05-06T11:10:39.600Z,1.00
2023-05-06T11:13:26.268Z,1.27
2023-05-06T11:15:55.510Z,2.03
2023-05-06T11:18:44.339Z,1.58
2023-05-06T11:21:39.846Z,1.30
2023-05-06T11:24:15.246Z,1.63
2023-05-06T11:26:44.381Z,1.52
2023-05-06T11:29:12.899Z,1.50
2023-05-06T11:31:43.907Z,1.33
2023-05-06T11:34:22.330Z,1.48
2023-05-06T11:37:03.714Z,1.80
2023-05-06T11:39:39.652Z,1.52
2023-05-06T11:42:09.667Z,1.90
2023-05-06T11:44:39.728Z,1.58
2023-05-06T11:47:09.813Z,1.75
2023-05-06T11:49:40.032Z,1.38
2023-05-06T11:52:11.229Z,1.70
2023-05-06T11:54:42.537Z,2.40
2023-05-06T11:57:11.714Z,2.08
2023-05-06T11:59:42.075Z,1.58
2023-05-06T12:02:14.203Z,1.60
2023-05-06T12:04:44.918Z,2.35
2023-05-06T12:07:16.433Z,2.33
2023-05-06T12:09:47.212Z,2.10
2023-05-06T12:12:21.743Z,2.35
2023-05-06T12:14:51.773Z,2.45
2023-05-06T12:17:20.975Z,2.67
2023-05-06T12:19:49.458Z,3.08
2023-05-06T12:22:24.713Z,2.72
2023-05-06T12:24:53.427Z,1.80
2023-05-06T12:27:36.289Z,1.90
2023-05-06T12:30:09.000Z,1.75
2023-05-06T12:32:37.977Z,1.33
2023-05-06T12:35:09.558Z,1.55
2023-05-06T12:37:39.367Z,1.45
2023-05-06T12:40:18.459Z,1.30
2023-05-06T12:42:54.258Z,1.10
2023-05-06T12:45:24.058Z,1.70
2023-05-06T12:47:56.961Z,1.48
2023-05-06T12:50:36.892Z,1.50
2023-05-06T12:53:09.210Z,1.30
2023-05-06T12:55:39.444Z,1.70
2023-05-06T12:58:17.462Z,1.50
2023-05-06T13:00:46.006Z,1.73
2023-05-06T13:03:14.959Z,2.05
2023-05-06T13:05:43.496Z,1.83
2023-05-06T13:08:13.262Z,1.73
2023-05-06T13:10:41.731Z,1.80
2023-05-06T13:13:10.200Z,2.28
2023-05-06T13:15:38.965Z,2.78
2023-05-06T13:18:07.557Z,1.92
2023-05-06T13:20:36.634Z,2.60
2023-05-06T13:23:04.986Z,3.88
2023-05-06T13:25:36.565Z,2.00
2023-05-06T13:28:11.169Z,2.45
2023-05-06T13:30:39.547Z,2.42
2023-05-06T13:33:08.006Z,3.08
2023-05-06T13:35:36.498Z,2.25
2023-05-06T13:38:04.899Z,2.10
2023-05-06T13:40:34.596Z,2.38
2023-05-06T13:43:05.012Z,1.80
2023-05-06T13:45:35.027Z,2.13
2023-05-06T13:48:03.515Z,1.83
2023-05-06T13:50:31.910Z,1.70
2023-05-06T13:53:00.249Z,1.70
2023-05-06T13:55:28.866Z,2.10
2023-05-06T13:57:58.634Z,1.70
2023-05-06T14:00:27.425Z,2.53
2023-05-06T14:02:55.923Z,3.10
2023-05-06T14:05:24.504Z,2.33
2023-05-06T14:07:52.859Z,3.17
2023-05-06T14:10:21.995Z,1.23
2023-05-06T14:12:51.329Z,1.50
2023-05-06T14:15:21.931Z,1.25
2023-05-06T14:17:50.437Z,1.30
2023-05-06T14:20:18.808Z,1.10
2023-05-06T14:22:47.125Z,1.20
2023-05-06T14:25:15.687Z,1.48
2023-05-06T14:27:45.522Z,1.70
2023-05-06T14:30:15.058Z,1.38
2023-05-06T14:32:44.821Z,1.17
2023-05-06T14:35:13.481Z,1.23
2023-05-06T14:37:41.890Z,1.55
2023-05-06T14:40:12.068Z,1.60
2023-05-06T14:42:40.559Z,1.95
2023-05-06T14:45:10.724Z,1.50
2023-05-06T14:47:41.256Z,1.20
2023-05-06T14:50:13.868Z,1.48
2023-05-06T14:52:42.822Z,1.23
2023-05-06T14:55:12.450Z,1.33
2023-05-06T14:57:41.092Z,1.30
2023-05-06T15:00:12.759Z,1.33
2023-05-06T15:02:42.153Z,1.25
2023-05-06T15:05:13.093Z,1.20
2023-05-06T15:07:42.098Z,1.30
2023-05-06T15:10:11.370Z,1.00
2023-05-06T15:12:39.786Z,0.90
2023-05-06T15:15:10.616Z,0.75
2023-05-06T15:17:41.307Z,0.90
2023-05-06T15:20:12.684Z,0.80
2023-05-06T15:22:41.152Z,1.33
2023-05-06T15:25:16.608Z,1.13
2023-05-06T15:27:51.168Z,1.98
2023-05-06T15:30:20.165Z,1.63
2023-05-06T15:32:49.192Z,1.10
2023-05-06T15:35:19.007Z,1.50
2023-05-06T15:37:47.370Z,1.52
2023-05-06T15:40:15.889Z,1.20
2023-05-06T15:42:44.265Z,1.17
2023-05-06T15:45:13.942Z,1.20
2023-05-06T15:47:42.428Z,1.00
2023-05-06T15:50:24.671Z,1.52
2023-05-06T15:53:02.624Z,1.05
2023-05-06T15:55:35.306Z,1.20
2023-05-06T15:58:12.148Z,1.50
2023-05-06T16:00:40.770Z,1.52
2023-05-06T16:03:11.882Z,1.33
2023-05-06T16:05:41.172Z,1.50
2023-05-06T16:08:11.042Z,1.50
2023-05-06T16:10:39.367Z,1.27
2023-05-06T16:13:07.890Z,1.75
2023-05-06T16:15:36.540Z,2.22
2023-05-06T16:18:05.227Z,1.40
2023-05-06T16:20:34.397Z,1.65
2023-05-06T16:23:02.880Z,1.48
2023-05-06T16:25:32.665Z,1.30
2023-05-06T16:28:01.102Z,1.67
2023-05-06T16:30:29.603Z,1.77
2023-05-06T16:32:57.989Z,1.95
2023-05-06T16:35:26.763Z,2.13
2023-05-06T16:37:55.112Z,2.20
2023-05-06T16:40:23.626Z,2.50
2023-05-06T16:42:53.484Z,2.17
2023-05-06T16:45:21.954Z,2.53
2023-05-06T16:47:50.590Z,1.73
2023-05-06T16:50:19.164Z,2.20
2023-05-06T16:52:48.008Z,3.28
2023-05-06T16:55:16.870Z,3.30
2023-05-06T16:57:45.320Z,1.92
2023-05-06T17:00:16.923Z,3.13
2023-05-06T17:02:45.373Z,2.75
2023-05-06T17:05:14.059Z,1.70
2023-05-06T17:07:42.425Z,2.00
2023-05-06T17:10:12.213Z,2.25
2023-05-06T17:12:41.721Z,3.08
2023-05-06T17:15:11.473Z,3.58
2023-05-06T17:17:41.319Z,2.95
2023-05-06T17:20:11.360Z,2.45
2023-05-06T17:22:40.067Z,2.33
2023-05-06T17:25:10.334Z,2.47
2023-05-06T17:27:38.800Z,3.03
2023-05-06T17:30:10.585Z,3.17
2023-05-06T17:32:40.525Z,2.90
2023-05-06T17:35:10.848Z,3.35
2023-05-06T17:37:39.988Z,3.72
2023-05-06T17:40:10.076Z,3.20
2023-05-06T17:42:38.481Z,2.72
2023-05-06T17:45:08.489Z,2.60
2023-05-06T17:47:37.185Z,2.92
2023-05-06T17:50:08.288Z,2.33
2023-05-06T17:52:36.711Z,2.85
2023-05-06T17:55:15.631Z,2.30
2023-05-06T17:57:45.745Z,4.10
2023-05-06T18:00:16.559Z,3.30
2023-05-06T18:02:45.406Z,2.80
2023-05-06T18:05:15.420Z,2.78
2023-05-06T18:07:43.894Z,2.80
2023-05-06T18:10:12.800Z,2.88
2023-05-06T18:12:41.424Z,2.58
2023-05-06T18:15:11.465Z,2.78
2023-05-06T18:17:40.669Z,2.70
2023-05-06T18:20:10.948Z,2.35
2023-05-06T18:22:42.819Z,2.30
2023-05-06T18:25:12.115Z,2.95
2023-05-06T18:27:40.689Z,2.90
2023-05-06T18:30:12.949Z,3.13
2023-05-06T18:32:41.292Z,4.65
2023-05-06T18:35:11.647Z,3.72
2023-05-06T18:37:41.652Z,4.35
2023-05-06T18:40:11.296Z,4.53
2023-05-06T18:42:39.741Z,4.28
2023-05-06T18:45:10.039Z,4.55
2023-05-06T18:47:40.304Z,3.85
2023-05-06T18:50:10.177Z,3.10
2023-05-06T18:52:38.543Z,3.85
2023-05-06T18:55:10.115Z,3.25
2023-05-06T18:57:38.721Z,3.58
2023-05-06T19:00:09.077Z,3.65
2023-05-06T19:02:38.031Z,2.72
2023-05-06T19:05:08.473Z,2.67
2023-05-06T19:07:37.054Z,2.63
2023-05-06T19:10:08.466Z,2.25
2023-05-06T19:12:36.964Z,2.22
2023-05-06T19:15:06.535Z,2.70
2023-05-06T19:17:34.935Z,2.30
2023-05-06T19:20:04.246Z,2.60
2023-05-06T19:22:32.987Z,2.63
2023-05-06T19:25:01.449Z,3.10
2023-05-06T19:27:31.267Z,2.95
2023-05-06T19:29:59.641Z,3.28
2023-05-06T19:32:28.111Z,3.28
2023-05-06T19:34:56.644Z,3.15
2023-05-06T19:37:25.142Z,2.85
2023-05-06T19:39:53.471Z,3.00
2023-05-06T19:42:21.838Z,2.10
2023-05-06T19:44:51.779Z,2.08
2023-05-06T19:47:20.163Z,3.15
2023-05-06T19:49:49.605Z,2.80
2023-05-06T19:52:18.045Z,3.13
2023-05-06T19:54:46.457Z,2.67
2023-05-06T19:57:14.850Z,1.88
2023-05-06T19:59:43.577Z,3.05
2023-05-06T20:02:16.556Z,2.70
2023-05-06T20:04:45.315Z,2.80
2023-05-06T20:07:14.292Z,1.98
2023-05-06T20:09:43.611Z,2.00
2023-05-06T20:12:11.961Z,2.00
2023-05-06T20:14:40.385Z,2.58
2023-05-06T20:17:08.923Z,2.00
2023-05-06T20:19:38.656Z,2.58
2023-05-06T20:22:07.319Z,2.22
2023-05-06T20:24:36.755Z,2.70
2023-05-06T20:27:05.255Z,3.17
2023-05-06T20:29:33.786Z,2.20
2023-05-06T20:32:02.433Z,2.75
2023-05-06T20:34:31.463Z,2.42
2023-05-06T20:37:01.606Z,2.78
2023-05-06T20:39:30.034Z,2.25
2023-05-06T20:41:58.409Z,2.65
2023-05-06T20:44:26.930Z,1.98
2023-05-06T20:46:55.315Z,2.45
2023-05-06T20:49:23.733Z,2.00
2023-05-06T20:51:52.045Z,2.40
2023-05-06T20:54:21.999Z,1.83
2023-05-06T20:56:50.357Z,2.38
2023-05-06T20:59:18.811Z,2.88
2023-05-06T21:01:47.157Z,2.05
2023-05-06T21:04:16.717Z,2.58
2023-05-06T21:06:46.104Z,2.10
2023-05-06T21:09:14.505Z,3.10
2023-05-06T21:11:44.251Z,2.55
2023-05-06T21:14:13.165Z,3.10
2023-05-06T21:16:41.864Z,2.50
2023-05-06T21:19:10.239Z,2.83
2023-05-06T21:21:38.685Z,2.50
2023-05-06T21:24:07.595Z,2.15
2023-05-06T21:26:36.465Z,2.10
2023-05-06T21:29:06.324Z,2.38
2023-05-06T21:31:34.866Z,3.20
2023-05-06T21:34:04.267Z,2.45
2023-05-06T21:36:32.696Z,2.45
2023-05-06T21:39:03.817Z,2.47
2023-05-06T21:41:32.174Z,2.50
2023-05-06T21:44:00.770Z,1.98
2023-05-06T21:46:31.145Z,2.95
2023-05-06T21:49:00.369Z,3.08
2023-05-06T21:51:29.999Z,4.18
2023-05-06T21:53:58.364Z,2.65
2023-05-06T21:56:26.768Z,2.20
2023-05-06T21:58:56.570Z,2.78
2023-05-06T22:01:26.445Z,2.53
2023-05-06T22:03:56.626Z,2.10
2023-05-06T22:06:25.097Z,2.30
2023-05-06T22:08:53.420Z,1.80
2023-05-06T22:11:22.744Z,2.40
2023-05-06T22:13:51.190Z,1.75
2023-05-06T22:16:19.775Z,2.38
2023-05-06T22:18:48.160Z,2.15
2023-05-06T22:21:17.848Z,2.03
2023-05-06T22:23:46.307Z,1.73
2023-05-06T22:26:14.705Z,1.77
2023-05-06T22:28:43.086Z,2.17
2023-05-06T22:31:11.525Z,1.75
2023-05-06T22:33:39.992Z,2.03
2023-05-06T22:36:09.296Z,2.17
2023-05-06T22:38:39.048Z,1.98
2023-05-06T22:41:07.516Z,1.95
2023-05-06T22:43:35.903Z,1.65
2023-05-06T22:46:04.878Z,3.20
2023-05-06T22:48:33.287Z,2.42
2023-05-06T22:51:02.921Z,2.40
2023-05-06T22:53:31.353Z,2.42
2023-05-06T22:56:01.301Z,2.08
2023-05-06T22:58:29.668Z,2.33
2023-05-06T23:00:58.228Z,1.88
2023-05-06T23:03:26.735Z,2.50
2023-05-06T23:05:55.368Z,2.70
2023-05-06T23:08:23.767Z,2.72
2023-05-06T23:10:52.088Z,3.03
2023-05-06T23:13:21.955Z,3.30
2023-05-06T23:15:50.399Z,4.07
2023-05-06T23:18:19.086Z,3.38
2023-05-06T23:20:47.535Z,2.97
2023-05-06T23:23:15.957Z,3.05
2023-05-06T23:25:44.310Z,3.13
2023-05-06T23:28:12.747Z,3.45
2023-05-06T23:30:43.002Z,3.03
2023-05-06T23:33:11.464Z,2.58
2023-05-06T23:35:39.844Z,2.85
2023-05-06T23:38:08.331Z,2.65
2023-05-06T23:40:36.626Z,3.10
2023-05-06T23:43:07.108Z,2.83
2023-05-06T23:45:35.484Z,2.20
2023-05-06T23:48:06.840Z,2.17
2023-05-06T23:50:35.208Z,2.90
2023-05-06T23:53:04.079Z,2.35
2023-05-06T23:55:32.805Z,1.77
2023-05-06T23:58:01.204Z,2.28
